EXS4IR HTDA-FMMI
Flight info
| Callsign | EXS4IR |
|---|---|
| Flight time | 2h 9m |
| Altitude | 23000 |
| Route | ITNIM1B KISIR A401 TN TN1V |
| Aircraft | B753/M-SDE2E3FGHIJ3J4J7RWXY/LB1 |
Departure
| Time | 2026-05-09 09:11 |
|---|---|
| Airport | Julius Nyerere International Airport (HTDA) |
Arrival
| Time | 2026-05-09 11:20 |
|---|---|
| Airport | Ivato International Airport (FMMI) |
| Time | Latitude | Longitude | Altitude | Speed | Heading |
|---|---|---|---|---|---|
| 2026-05-09 08:50 | -6.86291 | 39.21346 | 188 ft | 0 kts | 315° |
| 2026-05-09 09:02 | -6.86301 | 39.21356 | 187 ft | 2 kts | 315° |
| 2026-05-09 09:02 | -6.86312 | 39.21367 | 187 ft | 2 kts | 315° |
| 2026-05-09 09:02 | -6.86323 | 39.21377 | 187 ft | 2 kts | 329° |
| 2026-05-09 09:02 | -6.86337 | 39.21382 | 187 ft | 2 kts | 353° |
| 2026-05-09 09:03 | -6.86351 | 39.21382 | 186 ft | 2 kts | 15° |
| 2026-05-09 09:03 | -6.86365 | 39.21376 | 186 ft | 2 kts | 37° |
| 2026-05-09 09:03 | -6.86371 | 39.21372 | 186 ft | 1 kts | 49° |
| 2026-05-09 09:03 | -6.86374 | 39.21368 | 187 ft | 0 kts | 46° |
| 2026-05-09 09:07 | -6.86370 | 39.21372 | 186 ft | 2 kts | 46° |
| 2026-05-09 09:07 | -6.86354 | 39.21389 | 186 ft | 4 kts | 46° |
| 2026-05-09 09:07 | -6.86332 | 39.21411 | 186 ft | 5 kts | 44° |
| 2026-05-09 09:07 | -6.86301 | 39.21441 | 185 ft | 7 kts | 44° |
| 2026-05-09 09:08 | -6.86258 | 39.21485 | 184 ft | 10 kts | 44° |
| 2026-05-09 09:08 | -6.86227 | 39.21547 | 183 ft | 9 kts | 114° |
| 2026-05-09 09:08 | -6.86280 | 39.21576 | 181 ft | 8 kts | 163° |
| 2026-05-09 09:08 | -6.86323 | 39.21613 | 179 ft | 8 kts | 114° |
| 2026-05-09 09:09 | -6.86358 | 39.21661 | 177 ft | 8 kts | 152° |
| 2026-05-09 09:09 | -6.86412 | 39.21658 | 176 ft | 7 kts | 206° |
| 2026-05-09 09:09 | -6.86449 | 39.21626 | 177 ft | 9 kts | 225° |
| 2026-05-09 09:09 | -6.86584 | 39.21492 | 181 ft | 48 kts | 224° |
| 2026-05-09 09:10 | -6.86928 | 39.21149 | 186 ft | 90 kts | 225° |
| 2026-05-09 09:10 | -6.87470 | 39.20605 | 184 ft | 130 kts | 226° |
| 2026-05-09 09:10 | -6.88207 | 39.19868 | 218 ft | 163 kts | 224° |
| 2026-05-09 09:10 | -6.89011 | 39.19057 | 592 ft | 164 kts | 226° |
| 2026-05-09 09:11 | -6.89883 | 39.18268 | 872 ft | 177 kts | 205° |
| 2026-05-09 09:11 | -6.91111 | 39.18155 | 1231 ft | 185 kts | 162° |
| 2026-05-09 09:11 | -6.92169 | 39.18924 | 1456 ft | 202 kts | 124° |
| 2026-05-09 09:11 | -6.92786 | 39.20266 | 1707 ft | 220 kts | 111° |
| 2026-05-09 09:12 | -6.93337 | 39.21688 | 2329 ft | 219 kts | 111° |
| 2026-05-09 09:12 | -6.93901 | 39.23121 | 2875 ft | 222 kts | 111° |
| 2026-05-09 09:12 | -6.94479 | 39.24590 | 3352 ft | 231 kts | 111° |
| 2026-05-09 09:12 | -6.95096 | 39.26160 | 3707 ft | 249 kts | 111° |
| 2026-05-09 09:13 | -6.95782 | 39.27764 | 4235 ft | 260 kts | 118° |
| 2026-05-09 09:13 | -6.96816 | 39.29271 | 4923 ft | 263 kts | 130° |
| 2026-05-09 09:13 | -6.98056 | 39.30617 | 5663 ft | 265 kts | 135° |
| 2026-05-09 09:13 | -6.99404 | 39.31890 | 6355 ft | 269 kts | 138° |
| 2026-05-09 09:14 | -7.00802 | 39.33111 | 7058 ft | 271 kts | 140° |
| 2026-05-09 09:14 | -7.02263 | 39.34335 | 7747 ft | 274 kts | 141° |
| 2026-05-09 09:14 | -7.03735 | 39.35540 | 8427 ft | 277 kts | 141° |
| 2026-05-09 09:14 | -7.05223 | 39.36744 | 9089 ft | 280 kts | 141° |
| 2026-05-09 09:15 | -7.06254 | 39.37573 | 9540 ft | 282 kts | 141° |
| 2026-05-09 09:15 | -7.08285 | 39.39201 | 10352 ft | 288 kts | 141° |
| 2026-05-09 09:15 | -7.09925 | 39.40514 | 10490 ft | 312 kts | 141° |
| 2026-05-09 09:15 | -7.11685 | 39.41920 | 10579 ft | 337 kts | 141° |
| 2026-05-09 09:16 | -7.13580 | 39.43435 | 10713 ft | 360 kts | 141° |
| 2026-05-09 09:16 | -7.17517 | 39.46580 | 12265 ft | 367 kts | 141° |
| 2026-05-09 09:16 | -7.19519 | 39.48180 | 13009 ft | 370 kts | 141° |
| 2026-05-09 09:17 | -7.21534 | 39.49791 | 13730 ft | 375 kts | 141° |
| 2026-05-09 09:17 | -7.23601 | 39.51442 | 14449 ft | 379 kts | 141° |
| 2026-05-09 09:17 | -7.25656 | 39.53086 | 15147 ft | 383 kts | 141° |
| 2026-05-09 09:17 | -7.27733 | 39.54746 | 15829 ft | 387 kts | 141° |
| 2026-05-09 09:18 | -7.29831 | 39.56424 | 16494 ft | 390 kts | 141° |
| 2026-05-09 09:18 | -7.31974 | 39.58137 | 17149 ft | 394 kts | 141° |
| 2026-05-09 09:18 | -7.34140 | 39.59869 | 17788 ft | 398 kts | 141° |
| 2026-05-09 09:18 | -7.36306 | 39.61602 | 18406 ft | 402 kts | 141° |
| 2026-05-09 09:19 | -7.38489 | 39.63348 | 19007 ft | 406 kts | 141° |
| 2026-05-09 09:19 | -7.40717 | 39.65131 | 19600 ft | 410 kts | 141° |
| 2026-05-09 09:19 | -7.42945 | 39.66914 | 20173 ft | 413 kts | 141° |
| 2026-05-09 09:19 | -7.45171 | 39.68695 | 20727 ft | 417 kts | 141° |
| 2026-05-09 09:20 | -7.47443 | 39.70513 | 21277 ft | 420 kts | 141° |
| 2026-05-09 09:20 | -7.49761 | 39.72370 | 21821 ft | 424 kts | 141° |
| 2026-05-09 09:20 | -7.52046 | 39.74199 | 22341 ft | 427 kts | 141° |
| 2026-05-09 09:20 | -7.54391 | 39.76077 | 22854 ft | 431 kts | 141° |
| 2026-05-09 09:21 | -7.56753 | 39.77968 | 23010 ft | 442 kts | 141° |
| 2026-05-09 09:21 | -7.59158 | 39.79895 | 23001 ft | 446 kts | 141° |
| 2026-05-09 09:21 | -7.61593 | 39.81846 | 22998 ft | 444 kts | 141° |
| 2026-05-09 09:21 | -7.64013 | 39.83784 | 23000 ft | 445 kts | 141° |
| 2026-05-09 09:22 | -7.66407 | 39.85703 | 22999 ft | 445 kts | 141° |
| 2026-05-09 09:22 | -7.68842 | 39.87655 | 22999 ft | 445 kts | 141° |
| 2026-05-09 09:22 | -7.71233 | 39.89571 | 23000 ft | 445 kts | 141° |
| 2026-05-09 09:22 | -7.73659 | 39.91516 | 23000 ft | 445 kts | 141° |
| 2026-05-09 09:23 | -7.76078 | 39.93455 | 23000 ft | 445 kts | 141° |
| 2026-05-09 09:23 | -7.78465 | 39.95369 | 23000 ft | 445 kts | 141° |
| 2026-05-09 09:23 | -7.80904 | 39.97326 | 23000 ft | 445 kts | 141° |
| 2026-05-09 09:23 | -7.83318 | 39.99262 | 23003 ft | 445 kts | 141° |
| 2026-05-09 09:24 | -7.85687 | 40.01163 | 23640 ft | 437 kts | 141° |
| 2026-05-09 09:24 | -7.88048 | 40.03057 | 24194 ft | 439 kts | 141° |
| 2026-05-09 09:24 | -7.90453 | 40.04988 | 24641 ft | 443 kts | 141° |
| 2026-05-09 09:24 | -7.92879 | 40.06934 | 25135 ft | 446 kts | 141° |
| 2026-05-09 09:25 | -7.95297 | 40.08876 | 25577 ft | 450 kts | 141° |
| 2026-05-09 09:25 | -7.97759 | 40.10853 | 26031 ft | 453 kts | 141° |
| 2026-05-09 09:25 | -8.00214 | 40.12824 | 26461 ft | 456 kts | 141° |
| 2026-05-09 09:25 | -8.02685 | 40.14809 | 26883 ft | 459 kts | 141° |
| 2026-05-09 09:26 | -8.05180 | 40.16813 | 27295 ft | 462 kts | 141° |
| 2026-05-09 09:26 | -8.07692 | 40.18832 | 27697 ft | 465 kts | 141° |
| 2026-05-09 09:26 | -8.10221 | 40.20863 | 28089 ft | 468 kts | 141° |
| 2026-05-09 09:26 | -8.12786 | 40.22925 | 28474 ft | 471 kts | 141° |
| 2026-05-09 09:27 | -8.15308 | 40.24952 | 28842 ft | 473 kts | 141° |
| 2026-05-09 09:27 | -8.17910 | 40.27055 | 29211 ft | 476 kts | 141° |
| 2026-05-09 09:27 | -8.20465 | 40.29190 | 29566 ft | 479 kts | 140° |
| 2026-05-09 09:27 | -8.22997 | 40.31311 | 29906 ft | 482 kts | 140° |
| 2026-05-09 09:28 | -8.25564 | 40.33460 | 30340 ft | 482 kts | 140° |
| 2026-05-09 09:28 | -8.28127 | 40.35605 | 30828 ft | 480 kts | 140° |
| 2026-05-09 09:28 | -8.30699 | 40.37759 | 31271 ft | 479 kts | 140° |
| 2026-05-09 09:28 | -8.33242 | 40.39888 | 31697 ft | 479 kts | 140° |
| 2026-05-09 09:29 | -8.35812 | 40.42039 | 32114 ft | 478 kts | 140° |
| 2026-05-09 09:29 | -8.38372 | 40.44183 | 32514 ft | 477 kts | 140° |
| 2026-05-09 09:29 | -8.40882 | 40.46287 | 32893 ft | 476 kts | 140° |
| 2026-05-09 09:29 | -8.43451 | 40.48439 | 33268 ft | 475 kts | 140° |
| 2026-05-09 09:30 | -8.45963 | 40.50544 | 33621 ft | 475 kts | 140° |
| 2026-05-09 09:30 | -8.48497 | 40.52668 | 33967 ft | 474 kts | 140° |
| 2026-05-09 09:30 | -8.51022 | 40.54784 | 34302 ft | 473 kts | 140° |
| 2026-05-09 09:30 | -8.53533 | 40.56889 | 34623 ft | 473 kts | 140° |
| 2026-05-09 09:31 | -8.56053 | 40.59002 | 34929 ft | 472 kts | 140° |
| 2026-05-09 09:31 | -8.58608 | 40.61145 | 35002 ft | 474 kts | 140° |
| 2026-05-09 09:32 | -8.66159 | 40.67480 | 35000 ft | 471 kts | 140° |
| 2026-05-09 09:32 | -8.71170 | 40.71681 | 35000 ft | 471 kts | 141° |
| 2026-05-09 09:33 | -8.76177 | 40.75887 | 35000 ft | 471 kts | 140° |
| 2026-05-09 09:33 | -8.81198 | 40.80107 | 35000 ft | 471 kts | 140° |
| 2026-05-09 09:34 | -8.86246 | 40.84349 | 35000 ft | 471 kts | 140° |
| 2026-05-09 09:34 | -8.91265 | 40.88568 | 35000 ft | 471 kts | 140° |
| 2026-05-09 09:36 | -9.11334 | 41.05453 | 35000 ft | 471 kts | 140° |
| 2026-05-09 09:37 | -9.16363 | 41.09689 | 35000 ft | 471 kts | 140° |
| 2026-05-09 09:37 | -9.21372 | 41.13908 | 35000 ft | 471 kts | 140° |
| 2026-05-09 09:38 | -9.26390 | 41.18137 | 35000 ft | 471 kts | 140° |
| 2026-05-09 09:38 | -9.31396 | 41.22358 | 35000 ft | 471 kts | 140° |
| 2026-05-09 09:39 | -9.36434 | 41.26608 | 35000 ft | 471 kts | 140° |
| 2026-05-09 09:39 | -9.41427 | 41.30820 | 35000 ft | 471 kts | 140° |
| 2026-05-09 09:40 | -9.46459 | 41.35068 | 35000 ft | 471 kts | 140° |
| 2026-05-09 09:40 | -9.51452 | 41.39285 | 35000 ft | 471 kts | 140° |
| 2026-05-09 09:41 | -9.56492 | 41.43543 | 35000 ft | 471 kts | 140° |
| 2026-05-09 09:41 | -9.61502 | 41.47777 | 35000 ft | 471 kts | 140° |
| 2026-05-09 09:42 | -9.66508 | 41.52009 | 35000 ft | 471 kts | 140° |
| 2026-05-09 09:42 | -9.71510 | 41.56240 | 35000 ft | 471 kts | 140° |
| 2026-05-09 09:43 | -9.76525 | 41.60484 | 35000 ft | 471 kts | 140° |
| 2026-05-09 09:43 | -9.81566 | 41.64751 | 35000 ft | 471 kts | 140° |
| 2026-05-09 09:44 | -9.86576 | 41.68993 | 35000 ft | 471 kts | 140° |
| 2026-05-09 09:44 | -9.91568 | 41.73223 | 35000 ft | 471 kts | 140° |
| 2026-05-09 09:45 | -9.96581 | 41.77471 | 35000 ft | 471 kts | 140° |
| 2026-05-09 09:45 | -10.01603 | 41.81729 | 35000 ft | 471 kts | 140° |
| 2026-05-09 09:46 | -10.06612 | 41.85978 | 35000 ft | 471 kts | 140° |
| 2026-05-09 09:46 | -10.11611 | 41.90220 | 35000 ft | 471 kts | 140° |
| 2026-05-09 09:47 | -10.16635 | 41.94486 | 35000 ft | 471 kts | 140° |
| 2026-05-09 09:47 | -10.21623 | 41.98723 | 35000 ft | 471 kts | 140° |
| 2026-05-09 09:48 | -10.26632 | 42.02978 | 35000 ft | 471 kts | 140° |
| 2026-05-09 09:48 | -10.31640 | 42.07236 | 35000 ft | 471 kts | 140° |
| 2026-05-09 09:49 | -10.36637 | 42.11486 | 35000 ft | 471 kts | 140° |
| 2026-05-09 09:49 | -10.41648 | 42.15749 | 35000 ft | 471 kts | 140° |
| 2026-05-09 09:50 | -10.46680 | 42.20031 | 35000 ft | 471 kts | 140° |
| 2026-05-09 09:50 | -10.51670 | 42.24280 | 35000 ft | 471 kts | 140° |
| 2026-05-09 09:51 | -10.56681 | 42.28550 | 35000 ft | 471 kts | 140° |
| 2026-05-09 09:51 | -10.61681 | 42.32811 | 35000 ft | 471 kts | 140° |
| 2026-05-09 09:52 | -10.66662 | 42.37058 | 35000 ft | 471 kts | 140° |
| 2026-05-09 09:52 | -10.71665 | 42.41325 | 35000 ft | 471 kts | 140° |
| 2026-05-09 09:53 | -10.76773 | 42.45511 | 35001 ft | 471 kts | 143° |
| 2026-05-09 09:53 | -10.81952 | 42.49513 | 34999 ft | 471 kts | 143° |
| 2026-05-09 09:54 | -10.87163 | 42.53552 | 35000 ft | 471 kts | 143° |
| 2026-05-09 09:54 | -10.92341 | 42.57571 | 35000 ft | 471 kts | 143° |
| 2026-05-09 09:55 | -10.97544 | 42.61611 | 35000 ft | 471 kts | 143° |
| 2026-05-09 09:55 | -11.02731 | 42.65641 | 35000 ft | 471 kts | 142° |
| 2026-05-09 09:56 | -11.07929 | 42.69680 | 35000 ft | 471 kts | 142° |
| 2026-05-09 09:56 | -11.13102 | 42.73704 | 35000 ft | 471 kts | 142° |
| 2026-05-09 09:57 | -11.18283 | 42.77735 | 35000 ft | 471 kts | 142° |
| 2026-05-09 09:57 | -11.23492 | 42.81790 | 35000 ft | 471 kts | 142° |
| 2026-05-09 09:58 | -11.28671 | 42.85823 | 35000 ft | 471 kts | 142° |
| 2026-05-09 09:58 | -11.33834 | 42.89845 | 35000 ft | 471 kts | 142° |
| 2026-05-09 09:59 | -11.39034 | 42.93898 | 35000 ft | 471 kts | 142° |
| 2026-05-09 09:59 | -11.44205 | 42.97931 | 35000 ft | 471 kts | 142° |
| 2026-05-09 10:00 | -11.49419 | 43.01998 | 35000 ft | 471 kts | 142° |
| 2026-05-09 10:00 | -11.54593 | 43.06037 | 35000 ft | 471 kts | 142° |
| 2026-05-09 10:01 | -11.59753 | 43.10067 | 35000 ft | 471 kts | 142° |
| 2026-05-09 10:01 | -11.64949 | 43.14127 | 35000 ft | 471 kts | 142° |
| 2026-05-09 10:02 | -11.70149 | 43.18191 | 35000 ft | 471 kts | 142° |
| 2026-05-09 10:02 | -11.75330 | 43.22243 | 35000 ft | 471 kts | 142° |
| 2026-05-09 10:03 | -11.80518 | 43.26303 | 35000 ft | 471 kts | 142° |
| 2026-05-09 10:03 | -11.85700 | 43.30360 | 35000 ft | 471 kts | 142° |
| 2026-05-09 10:04 | -11.90813 | 43.34365 | 35000 ft | 471 kts | 142° |
| 2026-05-09 10:04 | -11.95971 | 43.38407 | 35000 ft | 471 kts | 142° |
| 2026-05-09 10:05 | -12.01138 | 43.42458 | 35000 ft | 471 kts | 142° |
| 2026-05-09 10:05 | -12.06330 | 43.46531 | 35000 ft | 471 kts | 142° |
| 2026-05-09 10:06 | -12.11509 | 43.50595 | 35000 ft | 471 kts | 142° |
| 2026-05-09 10:06 | -12.16695 | 43.54666 | 35000 ft | 471 kts | 142° |
| 2026-05-09 10:07 | -12.21876 | 43.58736 | 35000 ft | 471 kts | 142° |
| 2026-05-09 10:07 | -12.27037 | 43.62793 | 35000 ft | 471 kts | 142° |
| 2026-05-09 10:08 | -12.32204 | 43.66855 | 35000 ft | 471 kts | 142° |
| 2026-05-09 10:08 | -12.37391 | 43.70937 | 35000 ft | 471 kts | 142° |
| 2026-05-09 10:09 | -12.42581 | 43.75022 | 35000 ft | 471 kts | 142° |
| 2026-05-09 10:09 | -12.47737 | 43.79083 | 35000 ft | 471 kts | 142° |
| 2026-05-09 10:10 | -12.52926 | 43.83172 | 35000 ft | 471 kts | 142° |
| 2026-05-09 10:10 | -12.58106 | 43.87256 | 35000 ft | 471 kts | 142° |
| 2026-05-09 10:11 | -12.63246 | 43.91310 | 35000 ft | 471 kts | 142° |
| 2026-05-09 10:11 | -12.68420 | 43.95394 | 35000 ft | 471 kts | 142° |
| 2026-05-09 10:12 | -12.73596 | 43.99481 | 35000 ft | 471 kts | 142° |
| 2026-05-09 10:12 | -12.78784 | 44.03580 | 35000 ft | 471 kts | 142° |
| 2026-05-09 10:13 | -12.83940 | 44.07656 | 35000 ft | 471 kts | 142° |
| 2026-05-09 10:13 | -12.89127 | 44.11758 | 35000 ft | 471 kts | 142° |
| 2026-05-09 10:14 | -12.94267 | 44.15825 | 35000 ft | 471 kts | 142° |
| 2026-05-09 10:14 | -12.99441 | 44.19922 | 35000 ft | 471 kts | 142° |
| 2026-05-09 10:15 | -13.04595 | 44.24005 | 35000 ft | 471 kts | 142° |
| 2026-05-09 10:15 | -13.09794 | 44.28126 | 35000 ft | 471 kts | 142° |
| 2026-05-09 10:16 | -13.14952 | 44.32216 | 35000 ft | 471 kts | 142° |
| 2026-05-09 10:16 | -13.20091 | 44.36294 | 35000 ft | 471 kts | 142° |
| 2026-05-09 10:17 | -13.25265 | 44.40402 | 35000 ft | 471 kts | 142° |
| 2026-05-09 10:17 | -13.30451 | 44.44521 | 35000 ft | 471 kts | 142° |
| 2026-05-09 10:18 | -13.35590 | 44.48605 | 35000 ft | 471 kts | 142° |
| 2026-05-09 10:18 | -13.40763 | 44.52729 | 35000 ft | 471 kts | 142° |
| 2026-05-09 10:19 | -13.45899 | 44.56829 | 35000 ft | 471 kts | 142° |
| 2026-05-09 10:19 | -13.51052 | 44.60945 | 35000 ft | 471 kts | 142° |
| 2026-05-09 10:20 | -13.56233 | 44.65086 | 35000 ft | 471 kts | 142° |
| 2026-05-09 10:20 | -13.61368 | 44.69191 | 35000 ft | 471 kts | 142° |
| 2026-05-09 10:21 | -13.66543 | 44.73331 | 35000 ft | 471 kts | 142° |
| 2026-05-09 10:21 | -13.71674 | 44.77439 | 35000 ft | 471 kts | 142° |
| 2026-05-09 10:22 | -13.76821 | 44.81561 | 35000 ft | 471 kts | 142° |
| 2026-05-09 10:22 | -13.81965 | 44.85684 | 35000 ft | 471 kts | 142° |
| 2026-05-09 10:23 | -13.87123 | 44.89820 | 35000 ft | 471 kts | 142° |
| 2026-05-09 10:23 | -13.92267 | 44.93948 | 35000 ft | 471 kts | 142° |
| 2026-05-09 10:24 | -13.97438 | 44.98100 | 35000 ft | 471 kts | 142° |
| 2026-05-09 10:24 | -14.02577 | 45.02227 | 35000 ft | 471 kts | 142° |
| 2026-05-09 10:25 | -14.07712 | 45.06354 | 35000 ft | 471 kts | 142° |
| 2026-05-09 10:25 | -14.12867 | 45.10501 | 35000 ft | 471 kts | 142° |
| 2026-05-09 10:26 | -14.17989 | 45.14622 | 35000 ft | 471 kts | 142° |
| 2026-05-09 10:26 | -14.23147 | 45.18775 | 35000 ft | 471 kts | 142° |
| 2026-05-09 10:27 | -14.28285 | 45.22915 | 35000 ft | 471 kts | 142° |
| 2026-05-09 10:27 | -14.33427 | 45.27060 | 35000 ft | 471 kts | 142° |
| 2026-05-09 10:28 | -14.38595 | 45.31229 | 35000 ft | 471 kts | 142° |
| 2026-05-09 10:28 | -14.43740 | 45.35381 | 35000 ft | 471 kts | 142° |
| 2026-05-09 10:29 | -14.48864 | 45.39520 | 35000 ft | 471 kts | 142° |
| 2026-05-09 10:29 | -14.54035 | 45.43698 | 35000 ft | 471 kts | 142° |
| 2026-05-09 10:30 | -14.59156 | 45.47839 | 35000 ft | 471 kts | 142° |
| 2026-05-09 10:30 | -14.64288 | 45.51991 | 35000 ft | 471 kts | 142° |
| 2026-05-09 10:31 | -14.69456 | 45.56175 | 35000 ft | 471 kts | 142° |
| 2026-05-09 10:31 | -14.74569 | 45.60317 | 35000 ft | 471 kts | 142° |
| 2026-05-09 10:32 | -14.79707 | 45.64482 | 35000 ft | 471 kts | 142° |
| 2026-05-09 10:32 | -14.84860 | 45.68661 | 35000 ft | 471 kts | 142° |
| 2026-05-09 10:33 | -14.90008 | 45.72817 | 35000 ft | 471 kts | 142° |
| 2026-05-09 10:33 | -14.95154 | 45.76960 | 35000 ft | 471 kts | 142° |
| 2026-05-09 10:34 | -15.00297 | 45.81103 | 35000 ft | 471 kts | 142° |
| 2026-05-09 10:34 | -15.08014 | 45.87324 | 35000 ft | 471 kts | 142° |
| 2026-05-09 10:35 | -15.13186 | 45.91498 | 35000 ft | 471 kts | 142° |
| 2026-05-09 10:35 | -15.18309 | 45.95636 | 35000 ft | 471 kts | 142° |
| 2026-05-09 10:36 | -15.23464 | 45.99800 | 35000 ft | 471 kts | 142° |
| 2026-05-09 10:36 | -15.28614 | 46.03964 | 35000 ft | 471 kts | 142° |
| 2026-05-09 10:37 | -15.33766 | 46.08131 | 35000 ft | 471 kts | 142° |
| 2026-05-09 10:37 | -15.38919 | 46.12303 | 35000 ft | 471 kts | 142° |
| 2026-05-09 10:38 | -15.44062 | 46.16469 | 35000 ft | 471 kts | 142° |
| 2026-05-09 10:38 | -15.49189 | 46.20625 | 35000 ft | 471 kts | 142° |
| 2026-05-09 10:39 | -15.54324 | 46.24790 | 35000 ft | 471 kts | 142° |
| 2026-05-09 10:39 | -15.59468 | 46.28965 | 35000 ft | 471 kts | 142° |
| 2026-05-09 10:40 | -15.64739 | 46.32964 | 35004 ft | 471 kts | 150° |
| 2026-05-09 10:40 | -15.70798 | 46.35432 | 35005 ft | 471 kts | 164° |
| 2026-05-09 10:41 | -15.77073 | 46.37283 | 34999 ft | 471 kts | 164° |
| 2026-05-09 10:41 | -15.83361 | 46.39108 | 35000 ft | 471 kts | 165° |
| 2026-05-09 10:42 | -15.89677 | 46.40929 | 35000 ft | 471 kts | 165° |
| 2026-05-09 10:42 | -15.95936 | 46.42730 | 35000 ft | 471 kts | 165° |
| 2026-05-09 10:43 | -16.02231 | 46.44541 | 35000 ft | 471 kts | 165° |
| 2026-05-09 10:43 | -16.08519 | 46.46351 | 35000 ft | 471 kts | 165° |
| 2026-05-09 10:44 | -16.14854 | 46.48175 | 35000 ft | 471 kts | 165° |
| 2026-05-09 10:44 | -16.21107 | 46.49977 | 35000 ft | 471 kts | 165° |
| 2026-05-09 10:46 | -16.36882 | 46.54528 | 35000 ft | 471 kts | 165° |
| 2026-05-09 10:46 | -16.43175 | 46.56345 | 35000 ft | 471 kts | 165° |
| 2026-05-09 10:47 | -16.49378 | 46.58138 | 35000 ft | 471 kts | 165° |
| 2026-05-09 10:47 | -16.55673 | 46.59959 | 35000 ft | 471 kts | 165° |
| 2026-05-09 10:48 | -16.61968 | 46.61781 | 35000 ft | 471 kts | 165° |
| 2026-05-09 10:48 | -16.68285 | 46.63611 | 35000 ft | 471 kts | 165° |
| 2026-05-09 10:49 | -16.74597 | 46.65441 | 35000 ft | 471 kts | 164° |
| 2026-05-09 10:49 | -16.80933 | 46.67278 | 35000 ft | 471 kts | 164° |
| 2026-05-09 10:50 | -16.87212 | 46.69101 | 35000 ft | 471 kts | 164° |
| 2026-05-09 10:50 | -16.93520 | 46.70933 | 35000 ft | 471 kts | 164° |
| 2026-05-09 10:51 | -16.99810 | 46.72761 | 35000 ft | 471 kts | 164° |
| 2026-05-09 10:51 | -17.06125 | 46.74598 | 35000 ft | 471 kts | 164° |
| 2026-05-09 10:52 | -17.12387 | 46.76420 | 35000 ft | 471 kts | 164° |
| 2026-05-09 10:52 | -17.18673 | 46.78252 | 35000 ft | 471 kts | 164° |
| 2026-05-09 10:53 | -17.25000 | 46.80096 | 34864 ft | 472 kts | 164° |
| 2026-05-09 10:53 | -17.28102 | 46.81000 | 34722 ft | 461 kts | 164° |
| 2026-05-09 10:53 | -17.31151 | 46.81890 | 34132 ft | 458 kts | 164° |
| 2026-05-09 10:53 | -17.34221 | 46.82786 | 33540 ft | 455 kts | 164° |
| 2026-05-09 10:54 | -17.37172 | 46.83647 | 32964 ft | 453 kts | 164° |
| 2026-05-09 10:54 | -17.40167 | 46.84522 | 32379 ft | 453 kts | 164° |
| 2026-05-09 10:54 | -17.43198 | 46.85407 | 31789 ft | 455 kts | 164° |
| 2026-05-09 10:54 | -17.46237 | 46.86295 | 31196 ft | 456 kts | 164° |
| 2026-05-09 10:55 | -17.49281 | 46.87185 | 30602 ft | 457 kts | 164° |
| 2026-05-09 10:55 | -17.52334 | 46.88078 | 30014 ft | 458 kts | 164° |
| 2026-05-09 10:55 | -17.55429 | 46.88983 | 29428 ft | 458 kts | 164° |
| 2026-05-09 10:55 | -17.58438 | 46.89864 | 28863 ft | 453 kts | 164° |
| 2026-05-09 10:56 | -17.61471 | 46.90752 | 28304 ft | 449 kts | 164° |
| 2026-05-09 10:56 | -17.64446 | 46.91623 | 27764 ft | 444 kts | 164° |
| 2026-05-09 10:56 | -17.67366 | 46.92479 | 27242 ft | 439 kts | 164° |
| 2026-05-09 10:56 | -17.70308 | 46.93340 | 26723 ft | 436 kts | 164° |
| 2026-05-09 10:57 | -17.73173 | 46.94180 | 26224 ft | 433 kts | 164° |
| 2026-05-09 10:57 | -17.76082 | 46.95033 | 25722 ft | 429 kts | 164° |
| 2026-05-09 10:57 | -17.78916 | 46.95864 | 25236 ft | 426 kts | 164° |
| 2026-05-09 10:57 | -17.81755 | 46.96698 | 24752 ft | 423 kts | 164° |
| 2026-05-09 10:58 | -17.84548 | 46.97517 | 24278 ft | 420 kts | 164° |
| 2026-05-09 10:58 | -17.87350 | 46.98340 | 23805 ft | 416 kts | 164° |
| 2026-05-09 10:58 | -17.90127 | 46.99156 | 23336 ft | 413 kts | 164° |
| 2026-05-09 10:58 | -17.92855 | 46.99958 | 22891 ft | 410 kts | 164° |
| 2026-05-09 10:59 | -17.95604 | 47.00766 | 22422 ft | 408 kts | 164° |
| 2026-05-09 10:59 | -17.98316 | 47.01564 | 21957 ft | 405 kts | 164° |
| 2026-05-09 10:59 | -18.01018 | 47.02359 | 21494 ft | 401 kts | 164° |
| 2026-05-09 10:59 | -18.03687 | 47.03144 | 21038 ft | 399 kts | 164° |
| 2026-05-09 11:00 | -18.06333 | 47.03924 | 20587 ft | 396 kts | 164° |
| 2026-05-09 11:00 | -18.08964 | 47.04699 | 20138 ft | 393 kts | 164° |
| 2026-05-09 11:00 | -18.11563 | 47.05465 | 19696 ft | 390 kts | 164° |
| 2026-05-09 11:00 | -18.14177 | 47.06235 | 19252 ft | 388 kts | 164° |
| 2026-05-09 11:01 | -18.16746 | 47.06992 | 18816 ft | 385 kts | 164° |
| 2026-05-09 11:01 | -18.19317 | 47.07750 | 18380 ft | 382 kts | 164° |
| 2026-05-09 11:01 | -18.21878 | 47.08506 | 17946 ft | 380 kts | 164° |
| 2026-05-09 11:01 | -18.24396 | 47.09249 | 17519 ft | 377 kts | 164° |
| 2026-05-09 11:02 | -18.26902 | 47.09989 | 17094 ft | 375 kts | 164° |
| 2026-05-09 11:02 | -18.29404 | 47.10728 | 16670 ft | 373 kts | 163° |
| 2026-05-09 11:02 | -18.31780 | 47.11751 | 16254 ft | 370 kts | 149° |
| 2026-05-09 11:02 | -18.33887 | 47.13314 | 15853 ft | 368 kts | 142° |
| 2026-05-09 11:03 | -18.35911 | 47.14974 | 15444 ft | 366 kts | 142° |
| 2026-05-09 11:03 | -18.37906 | 47.16611 | 15040 ft | 363 kts | 142° |
| 2026-05-09 11:03 | -18.39873 | 47.18234 | 14643 ft | 361 kts | 142° |
| 2026-05-09 11:03 | -18.41859 | 47.19876 | 14242 ft | 359 kts | 142° |
| 2026-05-09 11:04 | -18.43812 | 47.21494 | 13847 ft | 357 kts | 142° |
| 2026-05-09 11:04 | -18.45736 | 47.23089 | 13459 ft | 355 kts | 142° |
| 2026-05-09 11:04 | -18.47671 | 47.24693 | 13069 ft | 353 kts | 142° |
| 2026-05-09 11:04 | -18.49589 | 47.26286 | 12683 ft | 351 kts | 142° |
| 2026-05-09 11:05 | -18.51494 | 47.27866 | 12299 ft | 349 kts | 142° |
| 2026-05-09 11:05 | -18.53392 | 47.29443 | 11917 ft | 347 kts | 142° |
| 2026-05-09 11:05 | -18.55260 | 47.30994 | 11542 ft | 345 kts | 142° |
| 2026-05-09 11:05 | -18.57149 | 47.32564 | 11162 ft | 343 kts | 142° |
| 2026-05-09 11:06 | -18.58998 | 47.34101 | 10791 ft | 341 kts | 142° |
| 2026-05-09 11:06 | -18.60858 | 47.35648 | 10417 ft | 339 kts | 142° |
| 2026-05-09 11:06 | -18.62661 | 47.37147 | 10262 ft | 320 kts | 142° |
| 2026-05-09 11:06 | -18.63394 | 47.37757 | 10227 ft | 309 kts | 142° |
| 2026-05-09 11:07 | -18.65000 | 47.39093 | 10152 ft | 286 kts | 142° |
| 2026-05-09 11:07 | -18.66522 | 47.40360 | 10069 ft | 273 kts | 142° |
| 2026-05-09 11:07 | -18.68016 | 47.41604 | 9979 ft | 273 kts | 142° |
| 2026-05-09 11:07 | -18.69505 | 47.42843 | 9886 ft | 272 kts | 142° |
| 2026-05-09 11:08 | -18.70979 | 47.44070 | 9761 ft | 272 kts | 142° |
| 2026-05-09 11:08 | -18.72470 | 47.45312 | 9600 ft | 271 kts | 142° |
| 2026-05-09 11:08 | -18.73933 | 47.46531 | 9415 ft | 271 kts | 142° |
| 2026-05-09 11:08 | -18.75419 | 47.47769 | 9205 ft | 270 kts | 142° |
| 2026-05-09 11:09 | -18.76877 | 47.48985 | 8983 ft | 269 kts | 142° |
| 2026-05-09 11:09 | -18.78502 | 47.49960 | 8760 ft | 266 kts | 165° |
| 2026-05-09 11:09 | -18.80334 | 47.50037 | 8653 ft | 266 kts | 193° |
| 2026-05-09 11:09 | -18.81985 | 47.49186 | 8593 ft | 267 kts | 222° |
| 2026-05-09 11:10 | -18.83059 | 47.47617 | 8558 ft | 269 kts | 249° |
| 2026-05-09 11:10 | -18.83320 | 47.45679 | 8516 ft | 266 kts | 278° |
| 2026-05-09 11:10 | -18.82702 | 47.43877 | 8492 ft | 266 kts | 304° |
| 2026-05-09 11:10 | -18.81559 | 47.42339 | 8452 ft | 267 kts | 309° |
| 2026-05-09 11:11 | -18.80382 | 47.40813 | 8416 ft | 265 kts | 308° |
| 2026-05-09 11:11 | -18.79353 | 47.39197 | 8420 ft | 265 kts | 297° |
| 2026-05-09 11:11 | -18.78666 | 47.37478 | 8411 ft | 252 kts | 288° |
| 2026-05-09 11:11 | -18.78177 | 47.35739 | 8408 ft | 238 kts | 284° |
| 2026-05-09 11:12 | -18.77810 | 47.34119 | 8401 ft | 221 kts | 282° |
| 2026-05-09 11:12 | -18.77504 | 47.32547 | 8410 ft | 216 kts | 281° |
| 2026-05-09 11:12 | -18.77230 | 47.30986 | 8419 ft | 217 kts | 280° |
| 2026-05-09 11:12 | -18.76970 | 47.29416 | 8417 ft | 216 kts | 279° |
| 2026-05-09 11:13 | -18.76722 | 47.27865 | 8418 ft | 216 kts | 279° |
| 2026-05-09 11:13 | -18.76479 | 47.26305 | 8418 ft | 216 kts | 279° |
| 2026-05-09 11:13 | -18.76200 | 47.24717 | 8288 ft | 222 kts | 289° |
| 2026-05-09 11:13 | -18.75381 | 47.23364 | 7815 ft | 225 kts | 322° |
| 2026-05-09 11:14 | -18.73990 | 47.22749 | 7666 ft | 212 kts | 359° |
| 2026-05-09 11:14 | -18.72583 | 47.23127 | 7728 ft | 214 kts | 35° |
| 2026-05-09 11:14 | -18.71647 | 47.24317 | 7783 ft | 214 kts | 71° |
| 2026-05-09 11:14 | -18.71548 | 47.25849 | 7839 ft | 215 kts | 106° |
| 2026-05-09 11:15 | -18.72267 | 47.27254 | 7645 ft | 220 kts | 128° |
| 2026-05-09 11:15 | -18.73215 | 47.28485 | 7191 ft | 215 kts | 129° |
| 2026-05-09 11:15 | -18.74134 | 47.29692 | 6975 ft | 207 kts | 129° |
| 2026-05-09 11:15 | -18.74994 | 47.30821 | 7015 ft | 188 kts | 129° |
| 2026-05-09 11:16 | -18.75796 | 47.31879 | 7034 ft | 185 kts | 127° |
| 2026-05-09 11:16 | -18.76444 | 47.33047 | 6977 ft | 177 kts | 119° |
| 2026-05-09 11:16 | -18.76999 | 47.34164 | 6879 ft | 171 kts | 115° |
| 2026-05-09 11:16 | -18.77478 | 47.35303 | 6891 ft | 165 kts | 111° |
| 2026-05-09 11:17 | -18.77822 | 47.36412 | 6495 ft | 163 kts | 105° |
| 2026-05-09 11:17 | -18.78090 | 47.37588 | 5935 ft | 162 kts | 102° |
| 2026-05-09 11:17 | -18.78301 | 47.38734 | 5704 ft | 163 kts | 100° |
| 2026-05-09 11:17 | -18.78496 | 47.39913 | 5464 ft | 163 kts | 99° |
| 2026-05-09 11:18 | -18.78675 | 47.41069 | 5225 ft | 155 kts | 99° |
| 2026-05-09 11:18 | -18.78841 | 47.42164 | 5004 ft | 148 kts | 99° |
| 2026-05-09 11:18 | -18.78981 | 47.43108 | 4831 ft | 148 kts | 99° |
| 2026-05-09 11:18 | -18.79140 | 47.44172 | 4634 ft | 147 kts | 99° |
| 2026-05-09 11:19 | -18.79298 | 47.45232 | 4440 ft | 146 kts | 99° |
| 2026-05-09 11:19 | -18.79457 | 47.46294 | 4250 ft | 146 kts | 99° |
| 2026-05-09 11:19 | -18.79615 | 47.47353 | 4164 ft | 131 kts | 98° |
| 2026-05-09 11:19 | -18.79726 | 47.48104 | 4164 ft | 80 kts | 99° |
| 2026-05-09 11:20 | -18.79794 | 47.48566 | 4164 ft | 47 kts | 99° |
| 2026-05-09 11:20 | -18.79836 | 47.48850 | 4163 ft | 32 kts | 98° |
| 2026-05-09 11:20 | -18.79867 | 47.49069 | 4164 ft | 28 kts | 99° |
| 2026-05-09 11:20 | -18.79888 | 47.49206 | 4163 ft | 6 kts | 99° |
| 2026-05-09 11:21 | -18.79905 | 47.49242 | 4163 ft | 6 kts | 124° |
| 2026-05-09 11:21 | -18.79931 | 47.49284 | 4163 ft | 6 kts | 112° |
| 2026-05-09 11:21 | -18.79919 | 47.49308 | 4163 ft | 3 kts | 13° |
| 2026-05-09 11:21 | -18.79900 | 47.49281 | 4164 ft | 8 kts | 283° |
| 2026-05-09 11:22 | -18.79883 | 47.49176 | 4163 ft | 21 kts | 279° |
| 2026-05-09 11:22 | -18.79851 | 47.48963 | 4163 ft | 35 kts | 279° |
| 2026-05-09 11:22 | -18.79815 | 47.48714 | 4164 ft | 33 kts | 279° |
| 2026-05-09 11:22 | -18.79779 | 47.48486 | 4163 ft | 30 kts | 279° |
| 2026-05-09 11:23 | -18.79748 | 47.48275 | 4163 ft | 27 kts | 279° |
| 2026-05-09 11:23 | -18.79750 | 47.48135 | 4164 ft | 13 kts | 228° |
| 2026-05-09 11:23 | -18.79793 | 47.48117 | 4163 ft | 1 kts | 191° |
| 2026-05-09 11:23 | -18.79798 | 47.48116 | 4163 ft | 0 kts | 191° |
| 2026-05-09 11:24 | -18.79799 | 47.48116 | 4163 ft | 0 kts | 191° |
| 2026-05-09 11:24 | -18.79810 | 47.48113 | 4163 ft | 2 kts | 191° |
| 2026-05-09 11:25 | -18.79834 | 47.48109 | 4163 ft | 4 kts | 191° |
| 2026-05-09 11:25 | -18.79863 | 47.48103 | 4163 ft | 4 kts | 188° |
| 2026-05-09 11:25 | -18.79895 | 47.48102 | 4163 ft | 4 kts | 177° |
| 2026-05-09 11:25 | -18.79923 | 47.48103 | 4163 ft | 3 kts | 187° |
| 2026-05-09 11:26 | -18.79951 | 47.48099 | 4163 ft | 4 kts | 189° |
| 2026-05-09 11:26 | -18.79983 | 47.48093 | 4163 ft | 4 kts | 189° |
| 2026-05-09 11:26 | -18.79999 | 47.48090 | 4163 ft | 0 kts | 190° |